createdAt,value
2023-11-24T00:01:12.042Z,17.72
2023-11-24T00:03:40.115Z,17.66
2023-11-24T00:06:09.994Z,17.71
2023-11-24T00:08:38.366Z,17.72
2023-11-24T00:11:06.774Z,17.67
2023-11-24T00:13:35.562Z,17.75
2023-11-24T00:16:04.646Z,17.76
2023-11-24T00:18:33.092Z,17.78
2023-11-24T00:21:07.573Z,17.77
2023-11-24T00:23:36.906Z,17.75
2023-11-24T00:26:07.047Z,17.76
2023-11-24T00:28:35.280Z,17.76
2023-11-24T00:31:06.713Z,17.71
2023-11-24T00:33:36.128Z,17.77
2023-11-24T00:36:04.351Z,17.81
2023-11-24T00:38:32.315Z,17.64
2023-11-24T00:41:01.824Z,17.81
2023-11-24T00:43:29.774Z,17.81
2023-11-24T00:45:57.842Z,17.77
2023-11-24T00:48:25.892Z,17.71
2023-11-24T00:50:55.244Z,17.63
2023-11-24T00:53:23.411Z,17.31
2023-11-24T00:55:51.395Z,17.49
2023-11-24T00:58:20.698Z,17.40
2023-11-24T01:00:48.794Z,17.26
2023-11-24T01:03:17.142Z,17.25
2023-11-24T01:05:45.133Z,17.11
2023-11-24T01:08:13.149Z,17.07
2023-11-24T01:10:41.180Z,17.09
2023-11-24T01:13:09.101Z,17.08
2023-11-24T01:15:38.574Z,17.06
2023-11-24T01:18:08.274Z,16.89
2023-11-24T01:20:36.293Z,16.97
2023-11-24T01:23:05.535Z,16.86
2023-11-24T01:25:32.635Z,16.90
2023-11-24T01:28:00.959Z,16.89
2023-11-24T01:30:28.971Z,16.89
2023-11-24T01:32:59.290Z,16.83
2023-11-24T01:35:27.314Z,16.83
2023-11-24T01:37:55.324Z,16.59
2023-11-24T01:40:23.798Z,16.74
2023-11-24T01:42:52.235Z,16.83
2023-11-24T01:45:20.189Z,16.81
2023-11-24T01:47:48.842Z,16.81
2023-11-24T01:50:18.695Z,16.75
2023-11-24T01:52:46.742Z,16.65
2023-11-24T01:55:15.295Z,16.71
2023-11-24T01:57:43.716Z,16.72
2023-11-24T02:00:14.474Z,16.75
2023-11-24T02:02:43.361Z,16.80
2023-11-24T02:05:12.251Z,16.84
2023-11-24T02:07:41.573Z,16.81
2023-11-24T02:10:10.529Z,16.90
2023-11-24T02:12:38.485Z,16.92
2023-11-24T02:15:08.202Z,16.93
2023-11-24T02:17:36.188Z,16.92
2023-11-24T02:20:07.087Z,16.91
2023-11-24T02:22:40.374Z,16.91
2023-11-24T02:25:09.606Z,16.89
2023-11-24T02:27:37.569Z,16.81
2023-11-24T02:30:06.814Z,16.74
2023-11-24T02:32:35.700Z,16.68
2023-11-24T02:35:04.164Z,16.61
2023-11-24T02:37:32.120Z,16.65
2023-11-24T02:40:01.553Z,16.66
2023-11-24T02:42:29.656Z,16.63
2023-11-24T02:44:57.669Z,16.59
2023-11-24T02:47:25.680Z,16.58
2023-11-24T02:49:53.616Z,16.60
2023-11-24T02:52:22.066Z,16.59
2023-11-24T02:54:50.112Z,16.59
2023-11-24T02:57:19.440Z,16.61
2023-11-24T02:59:47.392Z,16.51
2023-11-24T03:02:15.440Z,16.38
2023-11-24T03:04:43.509Z,16.59
2023-11-24T03:07:12.281Z,16.38
2023-11-24T03:09:40.238Z,16.43
2023-11-24T03:12:09.084Z,16.57
2023-11-24T03:14:39.568Z,16.48
2023-11-24T03:17:07.573Z,16.49
2023-11-24T03:19:35.486Z,16.43
2023-11-24T03:22:03.491Z,16.36
2023-11-24T03:24:31.513Z,16.22
2023-11-24T03:26:59.524Z,16.29
2023-11-24T03:29:27.597Z,16.29
2023-11-24T03:31:57.042Z,16.26
2023-11-24T03:34:25.019Z,16.10
2023-11-24T03:36:53.215Z,16.00
2023-11-24T03:39:22.434Z,16.16
2023-11-24T03:41:50.396Z,15.97
2023-11-24T03:44:18.334Z,16.05
2023-11-24T03:46:46.361Z,15.98
2023-11-24T03:49:15.677Z,16.01
2023-11-24T03:51:43.608Z,15.94
2023-11-24T03:54:11.585Z,15.95
2023-11-24T03:56:39.714Z,15.93
2023-11-24T03:59:07.852Z,15.89
2023-11-24T04:01:36.033Z,15.72
2023-11-24T04:04:04.182Z,15.78
2023-11-24T04:06:33.647Z,15.74
2023-11-24T04:09:01.631Z,15.72
2023-11-24T04:11:29.573Z,15.72
2023-11-24T04:13:58.186Z,15.65
2023-11-24T04:16:26.755Z,15.73
2023-11-24T04:18:54.799Z,15.72
2023-11-24T04:21:22.915Z,15.69
2023-11-24T04:23:52.384Z,15.63
2023-11-24T04:26:20.360Z,15.58
2023-11-24T04:28:48.245Z,15.59
2023-11-24T04:31:16.189Z,15.47
2023-11-24T04:33:44.210Z,15.50
2023-11-24T04:36:13.607Z,15.47
2023-11-24T04:38:41.555Z,15.33
2023-11-24T04:41:11.489Z,15.38
2023-11-24T04:43:40.017Z,15.31
2023-11-24T04:46:09.392Z,15.28
2023-11-24T04:48:39.495Z,15.36
2023-11-24T04:51:07.642Z,15.37
2023-11-24T04:53:36.752Z,15.30
2023-11-24T04:56:06.695Z,15.42
2023-11-24T04:58:36.061Z,15.45
2023-11-24T05:01:04.223Z,15.48
2023-11-24T05:03:32.562Z,15.33
2023-11-24T05:06:00.958Z,15.50
2023-11-24T05:08:28.910Z,15.56
2023-11-24T05:10:56.845Z,15.52
2023-11-24T05:13:24.805Z,15.48
2023-11-24T05:15:54.172Z,15.41
2023-11-24T05:18:22.193Z,15.35
2023-11-24T05:20:50.162Z,15.31
2023-11-24T05:23:18.104Z,15.28
2023-11-24T05:25:46.110Z,15.24
2023-11-24T05:28:14.039Z,15.32
2023-11-24T05:30:42.139Z,15.37
2023-11-24T05:33:11.511Z,15.39
2023-11-24T05:35:39.469Z,15.42
2023-11-24T05:38:08.239Z,15.45
2023-11-24T05:40:36.103Z,15.48
2023-11-24T05:43:04.151Z,15.47
2023-11-24T05:45:35.665Z,15.47
2023-11-24T05:48:03.861Z,15.46
2023-11-24T05:50:33.306Z,15.45
2023-11-24T05:53:01.278Z,15.46
2023-11-24T05:55:29.285Z,15.46
2023-11-24T05:57:57.831Z,15.47
2023-11-24T06:00:26.811Z,15.27
2023-11-24T06:02:54.799Z,15.45
2023-11-24T06:05:22.818Z,15.47
2023-11-24T06:07:54.306Z,15.47
2023-11-24T06:10:23.816Z,15.45
2023-11-24T06:12:51.830Z,15.45
2023-11-24T06:15:19.808Z,15.35
2023-11-24T06:17:49.703Z,15.49
2023-11-24T06:20:17.782Z,15.49
2023-11-24T06:22:45.789Z,15.50
2023-11-24T06:25:16.514Z,15.50
2023-11-24T06:27:45.221Z,15.51
2023-11-24T06:30:13.669Z,15.51
2023-11-24T06:32:41.713Z,15.51
2023-11-24T06:35:11.397Z,15.52
2023-11-24T06:37:39.634Z,15.45
2023-11-24T06:40:12.747Z,15.17
2023-11-24T06:42:42.504Z,15.03
2023-11-24T06:45:13.756Z,15.59
2023-11-24T06:47:42.198Z,15.55
2023-11-24T06:50:11.112Z,15.61
2023-11-24T06:52:39.076Z,15.57
2023-11-24T06:55:08.390Z,15.54
2023-11-24T06:57:36.658Z,15.53
2023-11-24T07:00:08.989Z,15.50
2023-11-24T07:02:37.671Z,15.49
2023-11-24T07:05:06.520Z,15.46
2023-11-24T07:07:34.449Z,15.26
2023-11-24T07:10:02.433Z,15.46
2023-11-24T07:12:30.621Z,15.21
2023-11-24T07:15:00.404Z,15.37
2023-11-24T07:17:32.648Z,15.31
2023-11-24T07:20:00.699Z,15.14
2023-11-24T07:22:28.688Z,15.06
2023-11-24T07:24:56.983Z,15.14
2023-11-24T07:27:25.088Z,15.15
2023-11-24T07:29:53.084Z,15.07
2023-11-24T07:32:26.116Z,15.11
2023-11-24T07:34:55.542Z,15.02
2023-11-24T07:37:23.569Z,15.08
2023-11-24T07:39:51.583Z,15.15
2023-11-24T07:42:19.652Z,15.16
2023-11-24T07:44:47.674Z,15.16
2023-11-24T07:47:16.143Z,15.06
2023-11-24T07:49:44.069Z,15.12
2023-11-24T07:52:13.798Z,14.99
2023-11-24T07:54:41.946Z,15.07
2023-11-24T07:57:10.121Z,15.05
2023-11-24T07:59:38.769Z,14.98
2023-11-24T08:02:07.339Z,15.01
2023-11-24T08:04:35.364Z,14.97
2023-11-24T08:07:03.508Z,14.81
2023-11-24T08:09:33.695Z,14.85
2023-11-24T08:12:01.642Z,14.95
2023-11-24T08:14:30.632Z,14.93
2023-11-24T08:16:58.696Z,14.85
2023-11-24T08:19:27.310Z,14.67
2023-11-24T08:21:55.257Z,14.93
2023-11-24T08:24:23.183Z,14.88
2023-11-24T08:26:52.794Z,14.97
2023-11-24T08:29:20.712Z,14.86
2023-11-24T08:31:49.744Z,14.88
2023-11-24T08:34:19.265Z,15.05
2023-11-24T08:36:48.114Z,15.06
2023-11-24T08:39:16.752Z,15.08
2023-11-24T08:41:49.549Z,15.09
2023-11-24T08:44:25.375Z,15.12
2023-11-24T08:46:53.688Z,15.04
2023-11-24T08:49:23.367Z,15.16
2023-11-24T08:51:51.421Z,15.21
2023-11-24T08:54:19.408Z,15.08
2023-11-24T08:56:47.357Z,15.33
2023-11-24T08:59:15.341Z,15.25
2023-11-24T09:01:44.672Z,15.50
2023-11-24T09:04:14.327Z,15.57
2023-11-24T09:06:42.943Z,15.64
2023-11-24T09:09:13.511Z,15.69
2023-11-24T09:11:41.544Z,15.69
2023-11-24T09:14:10.836Z,15.72
2023-11-24T09:16:40.403Z,15.75
2023-11-24T09:19:09.959Z,15.76
2023-11-24T09:21:37.988Z,15.79
2023-11-24T09:24:07.161Z,15.80
2023-11-24T09:26:35.077Z,15.81
2023-11-24T09:29:03.838Z,15.82
2023-11-24T09:31:35.692Z,15.84
2023-11-24T09:34:04.720Z,15.86
2023-11-24T09:36:34.227Z,15.89
2023-11-24T09:39:02.204Z,15.92
2023-11-24T09:41:30.297Z,15.88
2023-11-24T09:44:00.942Z,15.97
2023-11-24T09:46:33.469Z,16.00
2023-11-24T09:49:07.594Z,15.97
2023-11-24T09:51:38.136Z,15.96
2023-11-24T09:54:07.078Z,15.99
2023-11-24T09:56:35.845Z,15.94
2023-11-24T09:59:09.761Z,16.06
2023-11-24T10:01:38.624Z,16.20
2023-11-24T10:04:07.903Z,16.34
2023-11-24T10:06:40.293Z,16.46
2023-11-24T10:09:11.708Z,16.63
2023-11-24T10:11:40.694Z,16.68
2023-11-24T10:14:12.193Z,16.73
2023-11-24T10:16:42.415Z,16.96
2023-11-24T10:19:18.501Z,17.04
2023-11-24T10:21:50.414Z,16.96
2023-11-24T10:24:18.430Z,17.01
2023-11-24T10:26:47.237Z,16.92
2023-11-24T10:29:16.509Z,16.81
2023-11-24T10:31:44.982Z,16.60
2023-11-24T10:34:13.000Z,16.70
2023-11-24T10:36:41.870Z,16.91
2023-11-24T10:39:13.087Z,16.87
2023-11-24T10:41:44.325Z,17.07
2023-11-24T10:44:12.510Z,17.02
2023-11-24T10:46:42.874Z,17.09
2023-11-24T10:49:13.914Z,17.19
2023-11-24T10:51:45.825Z,17.15
2023-11-24T10:54:22.835Z,17.07
2023-11-24T10:56:51.598Z,16.84
2023-11-24T10:59:20.803Z,16.95
2023-11-24T11:01:49.076Z,16.92
2023-11-24T11:04:17.171Z,16.83
2023-11-24T11:06:49.816Z,16.73
2023-11-24T11:09:29.921Z,16.66
2023-11-24T11:12:38.638Z,16.63
2023-11-24T11:15:10.751Z,16.59
2023-11-24T11:17:39.625Z,16.60
2023-11-24T11:20:13.693Z,16.72
2023-11-24T11:22:43.886Z,16.83
2023-11-24T11:25:42.579Z,16.89
2023-11-24T11:28:47.712Z,16.83
2023-11-24T11:31:39.053Z,16.65
2023-11-24T11:34:18.017Z,16.77
2023-11-24T11:36:55.884Z,16.83
2023-11-24T11:39:27.833Z,16.66
2023-11-24T11:41:58.318Z,16.93
2023-11-24T11:44:34.679Z,16.98
2023-11-24T11:47:16.749Z,17.00
2023-11-24T11:49:44.956Z,16.94
2023-11-24T11:52:13.483Z,16.87
2023-11-24T11:54:41.991Z,16.98
2023-11-24T11:57:12.302Z,17.07
2023-11-24T11:59:41.204Z,16.88
2023-11-24T12:02:15.897Z,17.29
2023-11-24T12:04:46.786Z,17.58
2023-11-24T12:07:16.417Z,17.63
2023-11-24T12:09:44.939Z,17.70
2023-11-24T12:12:14.390Z,17.92
2023-11-24T12:14:43.950Z,18.15
2023-11-24T12:17:13.464Z,18.26
2023-11-24T12:19:44.348Z,18.12
2023-11-24T12:22:12.661Z,17.94
2023-11-24T12:24:41.347Z,17.72
2023-11-24T12:27:09.963Z,17.50
2023-11-24T12:29:42.512Z,17.31
2023-11-24T12:32:11.748Z,17.08
2023-11-24T12:34:42.988Z,17.01
2023-11-24T12:37:11.054Z,16.85
2023-11-24T12:39:41.801Z,16.85
2023-11-24T12:42:12.064Z,16.83
2023-11-24T12:44:42.823Z,16.79
2023-11-24T12:47:15.160Z,16.68
2023-11-24T12:50:07.806Z,16.62
2023-11-24T12:52:36.496Z,16.62
2023-11-24T12:55:08.472Z,16.32
2023-11-24T12:57:36.750Z,16.66
2023-11-24T13:00:11.083Z,16.65
2023-11-24T13:02:40.660Z,16.49
2023-11-24T13:05:09.671Z,16.60
2023-11-24T13:07:37.997Z,16.63
2023-11-24T13:10:11.731Z,16.67
2023-11-24T13:12:40.444Z,16.74
2023-11-24T13:15:10.830Z,16.79
2023-11-24T13:17:39.522Z,16.74
2023-11-24T13:20:11.617Z,16.81
2023-11-24T13:22:39.885Z,16.84
2023-11-24T13:25:09.718Z,17.31
2023-11-24T13:27:37.783Z,17.43
2023-11-24T13:30:10.514Z,17.43
2023-11-24T13:32:40.204Z,17.25
2023-11-24T13:35:11.902Z,17.20
2023-11-24T13:37:40.430Z,17.11
2023-11-24T13:40:10.775Z,17.09
2023-11-24T13:42:38.872Z,17.04
2023-11-24T13:45:08.575Z,16.94
2023-11-24T13:47:37.133Z,16.84
2023-11-24T13:50:08.806Z,16.98
2023-11-24T13:52:36.859Z,16.65
2023-11-24T13:55:07.275Z,17.05
2023-11-24T13:57:36.845Z,17.61
2023-11-24T14:00:08.265Z,17.76
2023-11-24T14:02:37.481Z,17.91
2023-11-24T14:05:09.911Z,17.97
2023-11-24T14:07:37.885Z,18.28
2023-11-24T14:10:07.473Z,18.01
2023-11-24T14:12:36.357Z,17.65
2023-11-24T14:15:05.815Z,17.35
2023-11-24T14:17:36.872Z,17.11
2023-11-24T14:20:08.210Z,16.93
2023-11-24T14:22:37.511Z,16.79
2023-11-24T14:25:07.773Z,16.71
2023-11-24T14:27:36.274Z,16.64
2023-11-24T14:30:06.753Z,16.56
2023-11-24T14:32:34.826Z,16.46
2023-11-24T14:35:04.301Z,16.38
2023-11-24T14:37:33.721Z,16.31
2023-11-24T14:40:02.656Z,16.26
2023-11-24T14:42:30.850Z,16.25
2023-11-24T14:44:58.832Z,16.21
2023-11-24T14:47:28.054Z,16.07
2023-11-24T14:49:56.143Z,16.18
2023-11-24T14:52:24.785Z,16.14
2023-11-24T14:54:56.652Z,16.18
2023-11-24T14:57:24.712Z,16.19
2023-11-24T14:59:56.026Z,16.04
2023-11-24T15:02:26.914Z,16.22
2023-11-24T15:04:55.081Z,16.20
2023-11-24T15:07:24.694Z,16.15
2023-11-24T15:09:54.110Z,16.11
2023-11-24T15:12:27.838Z,16.04
2023-11-24T15:14:59.956Z,15.98
2023-11-24T15:17:28.043Z,16.04
2023-11-24T15:19:56.780Z,15.87
2023-11-24T15:22:28.339Z,15.99
2023-11-24T15:24:59.651Z,16.02
2023-11-24T15:27:28.621Z,15.99
2023-11-24T15:29:56.822Z,15.96
2023-11-24T15:32:25.129Z,15.88
2023-11-24T15:34:54.424Z,15.82
2023-11-24T15:37:23.902Z,15.75
2023-11-24T15:39:58.066Z,15.70
2023-11-24T15:42:30.369Z,15.63
2023-11-24T15:45:00.197Z,15.63
2023-11-24T15:47:29.634Z,15.56
2023-11-24T15:49:59.505Z,15.53
2023-11-24T15:52:28.535Z,15.50
2023-11-24T15:54:58.753Z,15.55
2023-11-24T15:57:31.197Z,15.55
2023-11-24T16:00:02.716Z,15.54
2023-11-24T16:02:34.083Z,15.49
2023-11-24T16:05:05.778Z,15.36
2023-11-24T16:07:35.688Z,15.24
2023-11-24T16:10:15.161Z,15.16
2023-11-24T16:12:45.976Z,14.90
2023-11-24T16:15:17.326Z,14.90
2023-11-24T16:17:46.985Z,14.92
2023-11-24T16:20:15.264Z,14.98
2023-11-24T16:22:43.314Z,14.96
2023-11-24T16:25:11.347Z,14.93
2023-11-24T16:27:42.095Z,14.88
2023-11-24T16:30:12.310Z,14.76
2023-11-24T16:32:40.681Z,14.64
2023-11-24T16:35:10.292Z,14.51
2023-11-24T16:37:38.447Z,14.43
2023-11-24T16:40:09.384Z,14.37
2023-11-24T16:42:37.491Z,14.31
2023-11-24T16:45:07.503Z,14.24
2023-11-24T16:47:37.706Z,14.19
2023-11-24T16:50:06.590Z,13.93
2023-11-24T16:52:34.693Z,14.04
2023-11-24T16:55:04.120Z,14.01
2023-11-24T16:57:34.740Z,13.93
2023-11-24T17:00:05.196Z,13.88
2023-11-24T17:02:33.511Z,13.77
2023-11-24T17:05:04.376Z,13.75
2023-11-24T17:07:32.487Z,13.76
2023-11-24T17:10:00.596Z,13.74
2023-11-24T17:12:31.202Z,13.73
2023-11-24T17:14:59.326Z,13.73
2023-11-24T17:17:27.552Z,13.73
2023-11-24T17:19:55.764Z,13.73
2023-11-24T17:22:25.220Z,13.74
2023-11-24T17:24:53.298Z,13.76
2023-11-24T17:27:21.373Z,13.78
2023-11-24T17:29:49.949Z,13.80
2023-11-24T17:32:18.849Z,13.85
2023-11-24T17:34:47.468Z,13.90
2023-11-24T17:37:16.819Z,13.94
2023-11-24T17:39:46.873Z,13.91
2023-11-24T17:42:14.893Z,13.98
2023-11-24T17:44:42.923Z,13.99
2023-11-24T17:47:10.993Z,13.94
2023-11-24T17:49:39.044Z,13.78
2023-11-24T17:52:08.588Z,14.00
2023-11-24T17:54:36.700Z,14.01
2023-11-24T17:57:06.496Z,13.96
2023-11-24T17:59:34.511Z,14.01
2023-11-24T18:02:03.147Z,13.97
2023-11-24T18:04:31.350Z,13.88
2023-11-24T18:07:00.433Z,13.91
2023-11-24T18:09:29.303Z,13.88
2023-11-24T18:11:57.777Z,13.86
2023-11-24T18:14:27.178Z,13.83
2023-11-24T18:16:55.239Z,13.84
2023-11-24T18:19:23.731Z,13.86
2023-11-24T18:21:52.512Z,13.88
2023-11-24T18:24:21.054Z,13.89
2023-11-24T18:26:49.262Z,13.85
2023-11-24T18:29:18.224Z,13.77
2023-11-24T18:31:48.990Z,13.82
2023-11-24T18:34:17.296Z,13.84
2023-11-24T18:36:45.281Z,13.86
2023-11-24T18:39:13.725Z,13.86
2023-11-24T18:41:42.098Z,13.81
2023-11-24T18:44:10.255Z,13.76
2023-11-24T18:46:38.321Z,13.69
2023-11-24T18:49:08.063Z,13.65
2023-11-24T18:51:36.152Z,13.61
2023-11-24T18:54:04.240Z,13.58
2023-11-24T18:56:32.225Z,13.51
2023-11-24T18:59:00.453Z,13.54
2023-11-24T19:01:28.573Z,13.49
2023-11-24T19:03:57.360Z,13.50
2023-11-24T19:06:27.375Z,13.47
2023-11-24T19:08:56.642Z,13.43
2023-11-24T19:11:25.310Z,13.39
2023-11-24T19:13:53.398Z,13.39
2023-11-24T19:16:21.696Z,13.37
2023-11-24T19:18:49.791Z,13.36
2023-11-24T19:21:18.807Z,13.14
2023-11-24T19:23:49.562Z,13.22
2023-11-24T19:26:18.154Z,13.05
2023-11-24T19:28:59.076Z,13.14
2023-11-24T19:31:34.093Z,13.09
2023-11-24T19:34:03.437Z,13.05
2023-11-24T19:36:31.508Z,13.03
2023-11-24T19:39:01.210Z,12.67
2023-11-24T19:41:29.943Z,12.95
2023-11-24T19:43:58.009Z,12.80
2023-11-24T19:46:26.191Z,12.83
2023-11-24T19:48:54.296Z,12.79
2023-11-24T19:51:22.343Z,12.77
2023-11-24T19:53:52.584Z,12.75
2023-11-24T19:56:23.442Z,12.64
2023-11-24T19:58:51.952Z,12.63
2023-11-24T20:01:23.258Z,12.68
2023-11-24T20:03:51.566Z,12.53
2023-11-24T20:06:20.167Z,12.61
2023-11-24T20:08:48.347Z,12.53
2023-11-24T20:11:17.501Z,12.56
2023-11-24T20:13:47.096Z,12.44
2023-11-24T20:16:15.369Z,12.43
2023-11-24T20:18:45.649Z,12.39
2023-11-24T20:21:14.032Z,12.34
2023-11-24T20:23:42.041Z,12.36
2023-11-24T20:26:10.099Z,12.35
2023-11-24T20:28:38.218Z,12.32
2023-11-24T20:31:08.495Z,11.97
2023-11-24T20:33:36.581Z,12.27
2023-11-24T20:36:04.807Z,12.16
2023-11-24T20:38:33.310Z,12.15
2023-11-24T20:41:01.387Z,12.04
2023-11-24T20:43:30.414Z,12.04
2023-11-24T20:45:58.597Z,11.86
2023-11-24T20:48:28.057Z,11.96
2023-11-24T20:50:56.306Z,11.84
2023-11-24T20:53:24.306Z,11.86
2023-11-24T20:55:52.346Z,11.73
2023-11-24T20:58:20.370Z,11.73
2023-11-24T21:00:48.616Z,11.67
2023-11-24T21:03:16.677Z,11.63
2023-11-24T21:05:46.119Z,11.55
2023-11-24T21:08:14.068Z,11.45
2023-11-24T21:10:42.201Z,11.45
2023-11-24T21:13:10.325Z,11.26
2023-11-24T21:15:38.430Z,11.23
2023-11-24T21:18:07.049Z,11.33
2023-11-24T21:20:35.191Z,11.29
2023-11-24T21:23:04.750Z,11.24
2023-11-24T21:25:32.938Z,10.95
2023-11-24T21:28:01.346Z,11.02
2023-11-24T21:30:29.396Z,10.94
2023-11-24T21:32:57.611Z,10.79
2023-11-24T21:35:25.704Z,10.83
2023-11-24T21:37:53.740Z,10.77
2023-11-24T21:40:23.538Z,10.66
2023-11-24T21:42:51.662Z,10.67
2023-11-24T21:45:19.830Z,10.66
2023-11-24T21:47:48.292Z,10.64
2023-11-24T21:50:18.316Z,10.56
2023-11-24T21:52:46.624Z,10.51
2023-11-24T21:55:14.922Z,10.45
2023-11-24T21:57:44.568Z,10.52
2023-11-24T22:00:18.396Z,10.49
2023-11-24T22:02:46.882Z,10.45
2023-11-24T22:05:15.495Z,10.42
2023-11-24T22:07:44.504Z,10.38
2023-11-24T22:10:12.800Z,10.35
2023-11-24T22:12:41.896Z,10.23
2023-11-24T22:15:11.994Z,10.10
2023-11-24T22:17:40.052Z,10.16
2023-11-24T22:20:12.004Z,10.08
2023-11-24T22:22:40.545Z,10.13
2023-11-24T22:25:09.606Z,10.15
2023-11-24T22:27:38.161Z,10.00
2023-11-24T22:30:07.864Z,10.14
2023-11-24T22:32:37.715Z,10.14
2023-11-24T22:35:06.426Z,10.10
2023-11-24T22:37:35.654Z,10.00
2023-11-24T22:40:06.390Z,10.02
2023-11-24T22:42:35.448Z,9.91
2023-11-24T22:45:06.897Z,9.91
2023-11-24T22:47:39.280Z,9.84
2023-11-24T22:50:11.226Z,9.75
2023-11-24T22:52:39.702Z,9.31
2023-11-24T22:55:08.223Z,9.59
2023-11-24T22:57:36.607Z,9.49
2023-11-24T23:00:07.110Z,9.38
2023-11-24T23:02:35.250Z,9.32
2023-11-24T23:05:03.325Z,9.29
2023-11-24T23:07:33.133Z,9.22
2023-11-24T23:10:02.049Z,9.06
2023-11-24T23:12:30.107Z,9.09
2023-11-24T23:14:58.122Z,9.05
2023-11-24T23:17:26.214Z,9.03
2023-11-24T23:19:54.360Z,8.94
2023-11-24T23:22:31.229Z,8.86
2023-11-24T23:25:07.569Z,8.97
2023-11-24T23:27:38.799Z,8.95
2023-11-24T23:30:15.013Z,9.04
2023-11-24T23:32:45.166Z,9.04
2023-11-24T23:35:13.542Z,9.04
2023-11-24T23:37:45.206Z,8.99
2023-11-24T23:40:15.956Z,8.97
2023-11-24T23:42:46.234Z,9.08
2023-11-24T23:45:15.190Z,9.06
2023-11-24T23:47:43.878Z,9.05
2023-11-24T23:50:12.464Z,9.11
2023-11-24T23:52:40.832Z,9.09
2023-11-24T23:55:09.569Z,9.07
2023-11-24T23:57:39.047Z,9.06
